Time;durP1;ratioP1;P1;durP2;ratioP2;P2;SDS_P1;SDS_P2;PMS_P1;PMS_P2;Temp;Humidity;BMP_temperature;BMP_pressure;BME280_temperature;BME280_humidity;BME280_pressure;Samples;Min_cycle;Max_cycle;Signal;HPM_P1;HPM_P2
2024/01/01 00:03:18;;;;;;;612.00;376.40;;;;;;;2.91;92.09;97884.10;226568;1270;22536;-76
2024/01/01 00:08:23;;;;;;;597.90;357.70;;;;;;;2.92;92.26;97867.17;226499;1273;22633;-76
2024/01/01 00:13:26;;;;;;;416.50;225.70;;;;;;;2.91;92.24;97865.29;226606;1272;22538;-76
2024/01/01 00:18:28;;;;;;;358.80;183.00;;;;;;;2.88;92.24;97858.14;226563;1266;23657;-76
2024/01/01 00:23:30;;;;;;;337.60;172.50;;;;;;;2.87;92.22;97864.30;226573;1271;22544;-76
2024/01/01 00:28:37;;;;;;;307.70;152.80;;;;;;;2.89;92.41;97864.30;226591;1273;22540;-76
2024/01/01 00:33:39;;;;;;;321.30;158.40;;;;;;;2.98;92.80;97867.37;226555;1270;22557;-76
2024/01/01 00:38:41;;;;;;;327.30;166.80;;;;;;;3.02;92.80;97865.67;226526;1272;23313;-76
2024/01/01 00:43:43;;;;;;;309.30;160.90;;;;;;;3.03;92.56;97858.49;226458;1269;22576;-76
2024/01/01 00:48:45;;;;;;;318.60;159.20;;;;;;;3.02;92.63;97866.85;226631;1272;22544;-77
2024/01/01 00:53:48;;;;;;;333.60;168.30;;;;;;;3.03;92.71;97873.37;226606;1270;22572;-76
2024/01/01 00:58:50;;;;;;;369.50;190.40;;;;;;;3.05;92.44;97879.25;226610;1273;22572;-77
2024/01/01 01:03:52;;;;;;;371.40;191.30;;;;;;;3.07;92.80;97882.18;226373;1273;22540;-75
2024/01/01 01:08:54;;;;;;;311.00;158.80;;;;;;;3.10;92.74;97893.38;226604;1272;22634;-74
2024/01/01 01:13:56;;;;;;;300.20;154.70;;;;;;;3.11;92.78;97902.33;226588;1269;22644;-74
2024/01/01 01:18:59;;;;;;;302.60;153.40;;;;;;;3.11;92.78;97913.60;226398;1273;22540;-75
2024/01/01 01:24:02;;;;;;;292.40;149.70;;;;;;;3.11;92.64;97919.50;226592;1269;22551;-75
2024/01/01 01:29:04;;;;;;;264.20;139.80;;;;;;;3.15;92.64;97927.36;226519;1273;25482;-75
2024/01/01 01:34:06;;;;;;;262.20;131.90;;;;;;;3.21;92.79;97929.10;226624;1272;22554;-75
2024/01/01 01:39:09;;;;;;;241.00;122.30;;;;;;;3.28;93.26;97933.17;226560;1267;24434;-75
2024/01/01 01:44:11;;;;;;;240.10;118.10;;;;;;;3.37;93.36;97929.82;226604;1269;26260;-75
2024/01/01 01:49:13;;;;;;;209.50;112.90;;;;;;;3.43;93.19;97928.44;226628;1270;22555;-75
2024/01/01 01:54:16;;;;;;;200.30;105.50;;;;;;;3.50;93.43;97929.77;226483;1269;22619;-75
2024/01/01 01:59:19;;;;;;;175.30;93.90;;;;;;;3.59;93.32;97925.69;226700;1269;22557;-75
2024/01/01 02:04:21;;;;;;;139.90;76.00;;;;;;;3.65;93.35;97920.56;226522;1269;22570;-75
2024/01/01 02:09:23;;;;;;;129.70;69.70;;;;;;;3.71;93.33;97927.54;226630;1267;22543;-75
2024/01/01 02:14:25;;;;;;;122.10;68.40;;;;;;;3.78;93.66;97928.86;226602;1264;24225;-74
2024/01/01 02:19:28;;;;;;;104.00;60.90;;;;;;;3.81;93.36;97922.08;226632;1274;23776;-74
2024/01/01 02:24:31;;;;;;;102.20;57.70;;;;;;;3.83;93.62;97927.00;226545;1272;22963;-75
2024/01/01 02:29:33;;;;;;;93.30;52.50;;;;;;;3.88;93.33;97920.57;226525;1272;22526;-75
2024/01/01 02:34:35;;;;;;;82.50;48.70;;;;;;;3.94;93.53;97917.56;226420;1273;22566;-75
2024/01/01 02:39:38;;;;;;;71.60;42.00;;;;;;;3.96;93.56;97917.53;226490;1272;22563;-75
2024/01/01 02:44:40;;;;;;;67.10;40.40;;;;;;;3.97;93.38;97907.63;226568;1269;22538;-75
2024/01/01 02:49:42;;;;;;;66.30;38.40;;;;;;;4.01;93.58;97898.56;226504;1269;22699;-75
2024/01/01 02:54:46;;;;;;;58.10;34.40;;;;;;;4.08;93.61;97903.58;226607;1269;23275;-75
2024/01/01 02:59:48;;;;;;;56.90;34.70;;;;;;;4.14;93.80;97910.63;226491;1273;22582;-75
2024/01/01 03:04:50;;;;;;;55.20;33.10;;;;;;;4.18;93.21;97920.55;226529;1273;22545;-75
2024/01/01 03:09:52;;;;;;;57.90;33.90;;;;;;;4.21;93.18;97933.49;226595;1272;22586;-74
2024/01/01 03:14:54;;;;;;;53.70;33.50;;;;;;;4.23;93.22;97926.69;226501;1272;22546;-75
2024/01/01 03:19:57;;;;;;;56.70;34.20;;;;;;;4.26;93.42;97912.77;226501;1270;22539;-76
2024/01/01 03:24:59;;;;;;;53.40;31.90;;;;;;;4.26;92.99;97905.11;226454;1272;22569;-75
2024/01/01 03:30:05;;;;;;;52.40;32.20;;;;;;;4.30;92.99;97910.00;226455;1271;22546;-74
2024/01/01 03:35:08;;;;;;;49.90;32.00;;;;;;;4.34;92.88;97902.68;226677;1269;22537;-76
2024/01/01 03:40:11;;;;;;;45.20;29.70;;;;;;;4.38;92.83;97899.45;226373;1272;22637;-75
2024/01/01 03:45:13;;;;;;;45.20;30.30;;;;;;;4.42;92.70;97893.74;226398;1269;24208;-75
2024/01/01 03:50:16;;;;;;;41.00;28.10;;;;;;;4.47;92.92;97887.36;226476;1266;22537;-75
2024/01/01 03:55:18;;;;;;;42.00;27.20;;;;;;;4.53;92.87;97890.01;226552;1273;22581;-76
2024/01/01 04:00:22;;;;;;;35.80;23.50;;;;;;;4.60;92.45;97889.94;226532;1268;22540;-76
2024/01/01 04:05:25;;;;;;;40.80;26.40;;;;;;;4.65;92.28;97890.92;226448;1269;22542;-76
2024/01/01 04:10:27;;;;;;;39.50;26.40;;;;;;;4.69;91.89;97889.63;226495;1269;22545;-76
2024/01/01 04:15:29;;;;;;;41.20;27.40;;;;;;;4.73;91.70;97880.01;226610;1272;22524;-75
2024/01/01 04:20:31;;;;;;;34.40;24.50;;;;;;;4.73;91.69;97880.95;226530;1272;22574;-76
2024/01/01 04:25:33;;;;;;;35.80;25.40;;;;;;;4.74;91.47;97870.74;226556;1272;22577;-76
2024/01/01 04:30:36;;;;;;;32.80;21.60;;;;;;;4.75;91.36;97856.95;226466;1269;24243;-76
2024/01/01 04:35:39;;;;;;;28.20;20.00;;;;;;;4.74;91.09;97843.40;226588;1263;22547;-76
2024/01/01 04:40:41;;;;;;;27.70;18.40;;;;;;;4.70;90.74;97827.13;226444;1272;22589;-76
2024/01/01 04:45:43;;;;;;;27.20;18.20;;;;;;;4.67;90.69;97823.26;226555;1274;25246;-76
2024/01/01 04:50:45;;;;;;;24.50;17.10;;;;;;;4.63;90.79;97823.51;226507;1272;22602;-76
2024/01/01 04:55:47;;;;;;;23.00;16.20;;;;;;;4.64;90.51;97822.59;226479;1252;22825;-75
2024/01/01 05:00:49;;;;;;;22.40;15.50;;;;;;;4.65;90.63;97829.61;226508;1271;22570;-75
2024/01/01 05:05:51;;;;;;;23.00;16.50;;;;;;;4.66;90.40;97820.71;226493;1272;25445;-75
2024/01/01 05:10:53;;;;;;;25.40;16.80;;;;;;;4.69;90.11;97819.13;226531;1272;22556;-75
2024/01/01 05:15:58;;;;;;;23.50;15.70;;;;;;;4.71;90.07;97821.41;226559;1272;22533;-75
2024/01/01 05:21:00;;;;;;;23.90;15.40;;;;;;;4.72;89.90;97822.33;226586;1272;22543;-75
2024/01/01 05:26:03;;;;;;;22.70;15.00;;;;;;;4.73;89.72;97819.27;226551;1272;22535;-77
2024/01/01 05:31:06;;;;;;;25.80;15.60;;;;;;;4.73;89.83;97814.13;226515;1272;22532;-76
2024/01/01 05:36:13;;;;;;;24.20;15.70;;;;;;;4.72;89.80;97813.25;226488;1272;22551;-77
2024/01/01 05:41:15;;;;;;;24.30;15.20;;;;;;;4.71;89.63;97816.11;226611;1273;22566;-76
2024/01/01 05:46:17;;;;;;;22.70;15.00;;;;;;;4.70;89.72;97826.54;226522;1263;24266;-77
2024/01/01 05:51:19;;;;;;;22.80;14.70;;;;;;;4.68;89.61;97841.44;226530;1266;22554;-77
2024/01/01 05:56:22;;;;;;;21.00;14.00;;;;;;;4.64;89.68;97837.73;226551;1269;25306;-77
2024/01/01 06:01:24;;;;;;;20.30;13.00;;;;;;;4.58;89.67;97842.22;226532;1270;22544;-76
2024/01/01 06:06:26;;;;;;;20.90;13.60;;;;;;;4.54;89.92;97835.11;226462;1274;25331;-77
2024/01/01 06:11:28;;;;;;;18.90;12.80;;;;;;;4.51;89.74;97834.61;226497;1272;22534;-76
2024/01/01 06:16:30;;;;;;;21.50;14.60;;;;;;;4.44;89.93;97839.07;226491;1272;24237;-77
2024/01/01 06:21:33;;;;;;;21.00;13.00;;;;;;;4.37;90.01;97834.53;226332;1272;25246;-77
2024/01/01 06:26:35;;;;;;;22.30;13.30;;;;;;;4.29;90.23;97832.94;226544;1271;24257;-77
2024/01/01 06:31:37;;;;;;;20.40;12.20;;;;;;;4.23;90.43;97839.38;226382;1273;22574;-77
2024/01/01 06:36:39;;;;;;;18.40;10.50;;;;;;;4.17;90.57;97850.84;226527;1274;22569;-76
2024/01/01 06:41:42;;;;;;;16.10;9.80;;;;;;;4.12;90.56;97861.48;226477;1269;22545;-77
2024/01/01 06:46:44;;;;;;;18.00;9.50;;;;;;;4.08;90.92;97873.48;226409;1266;24221;-77
2024/01/01 06:51:52;;;;;;;13.60;7.60;;;;;;;4.02;90.78;97886.10;226465;1253;22540;-77
2024/01/01 06:56:54;;;;;;;12.50;8.20;;;;;;;3.96;91.01;97896.20;226415;1270;22689;-78
2024/01/01 07:01:58;;;;;;;15.30;8.80;;;;;;;3.90;91.01;97905.91;226407;1269;23674;-77
2024/01/01 07:07:00;;;;;;;13.40;7.70;;;;;;;3.85;90.67;97912.73;226458;1272;22828;-77
2024/01/01 07:12:19;;;;;;;13.40;8.10;;;;;;;3.82;91.00;97922.27;226429;1272;22660;-76
2024/01/01 07:17:21;;;;;;;11.40;7.10;;;;;;;3.80;91.42;97938.14;226548;1272;22539;-77
2024/01/01 07:22:24;;;;;;;9.90;6.10;;;;;;;3.78;91.08;97940.62;226483;1269;23737;-77
2024/01/01 07:27:26;;;;;;;11.50;6.30;;;;;;;3.74;91.08;97948.62;226495;1259;24240;-76
2024/01/01 07:32:28;;;;;;;10.10;5.90;;;;;;;3.68;91.12;97947.37;226529;1273;22542;-78
2024/01/01 07:37:30;;;;;;;10.20;5.80;;;;;;;3.62;91.12;97940.48;226356;1274;22548;-76
2024/01/01 07:42:32;;;;;;;7.50;4.50;;;;;;;3.58;91.25;97939.04;226564;1271;22552;-76
2024/01/01 07:47:34;;;;;;;6.30;4.00;;;;;;;3.52;91.31;97941.05;226530;1272;22548;-77
2024/01/01 07:52:37;;;;;;;4.90;2.70;;;;;;;3.46;91.21;97941.33;226456;1272;22543;-77
2024/01/01 07:57:39;;;;;;;5.20;3.10;;;;;;;3.41;91.12;97953.05;226485;1273;22531;-77
2024/01/01 08:02:43;;;;;;;6.60;3.90;;;;;;;3.38;91.20;97952.54;226484;1272;23341;-77
2024/01/01 08:07:48;;;;;;;7.50;4.00;;;;;;;3.37;91.19;97948.55;227057;1272;22549;-76
2024/01/01 08:12:50;;;;;;;5.70;3.50;;;;;;;3.39;91.43;97947.52;226398;1251;22555;-78
2024/01/01 08:17:52;;;;;;;7.50;4.70;;;;;;;3.40;91.49;97943.92;226472;1272;25400;-76
2024/01/01 08:22:55;;;;;;;11.70;6.90;;;;;;;3.41;91.56;97935.99;226562;1260;22543;-77
2024/01/01 08:27:58;;;;;;;15.30;9.40;;;;;;;3.40;91.66;97940.92;226418;1269;22539;-78
2024/01/01 08:33:00;;;;;;;17.00;10.00;;;;;;;3.41;91.91;97945.88;226431;1274;24198;-76
2024/01/01 08:38:03;;;;;;;20.00;11.40;;;;;;;3.44;92.25;97956.73;226533;1272;25802;-77
2024/01/01 08:43:06;;;;;;;27.40;13.30;;;;;;;3.45;91.93;97967.38;226445;1272;22544;-76
2024/01/01 08:48:08;;;;;;;22.10;12.40;;;;;;;3.46;92.07;97977.66;226469;1269;22547;-78
2024/01/01 08:53:10;;;;;;;18.80;11.30;;;;;;;3.48;92.03;97979.30;226540;1273;22608;-77
2024/01/01 08:58:17;;;;;;;16.40;10.00;;;;;;;3.50;92.00;97984.42;226604;1273;22554;-79
2024/01/01 09:03:19;;;;;;;14.60;9.40;;;;;;;3.50;92.26;97990.85;226539;1274;22554;-77
2024/01/01 09:08:21;;;;;;;16.40;9.40;;;;;;;3.48;92.00;97999.46;226488;1270;22533;-78
2024/01/01 09:13:24;;;;;;;12.40;7.90;;;;;;;3.47;92.28;98003.99;226404;1274;22566;-77
2024/01/01 09:18:27;;;;;;;12.10;6.90;;;;;;;3.50;92.11;98003.96;226615;1272;22603;-77
2024/01/01 09:23:31;;;;;;;10.50;6.40;;;;;;;3.50;92.39;97999.38;226502;1273;22525;-78
2024/01/01 09:28:33;;;;;;;10.00;5.80;;;;;;;3.51;92.00;98002.28;226446;1259;22544;-77
2024/01/01 09:33:39;;;;;;;12.10;6.90;;;;;;;3.50;92.01;97999.90;226540;1272;22540;-77
2024/01/01 09:38:42;;;;;;;13.70;7.60;;;;;;;3.52;92.21;97989.84;226442;1274;22919;-77
2024/01/01 09:43:47;;;;;;;11.20;6.40;;;;;;;3.54;92.24;97985.94;226645;1263;22911;-77
2024/01/01 09:48:49;;;;;;;13.70;6.10;;;;;;;3.58;92.32;97980.75;226367;1272;22534;-77
2024/01/01 09:53:52;;;;;;;11.20;5.20;;;;;;;3.59;92.00;97974.22;226404;1270;23110;-77
2024/01/01 09:58:57;;;;;;;12.10;6.50;;;;;;;3.59;91.91;97968.15;226505;1273;22534;-77
2024/01/01 10:04:03;;;;;;;14.10;8.00;;;;;;;3.59;92.13;97961.66;226465;1272;22523;-78
2024/01/01 10:09:10;;;;;;;16.40;8.70;;;;;;;3.63;92.13;97967.58;226389;1273;22557;-77
2024/01/01 10:14:12;;;;;;;14.00;7.90;;;;;;;3.69;92.35;97963.98;226399;1272;22538;-78
2024/01/01 10:19:14;;;;;;;10.40;5.70;;;;;;;3.74;92.52;97958.80;226501;1273;22581;-77
2024/01/01 10:24:21;;;;;;;9.50;5.30;;;;;;;3.73;92.18;97950.05;226405;1274;22547;-78
2024/01/01 10:29:35;;;;;;;7.30;4.30;;;;;;;3.72;92.18;97948.84;226467;1272;22578;-77
2024/01/01 10:34:38;;;;;;;7.30;4.30;;;;;;;3.71;92.02;97952.94;226904;1272;23212;-77
2024/01/01 10:39:43;;;;;;;10.50;4.90;;;;;;;3.71;92.11;97945.52;226484;1273;22540;-77
2024/01/01 10:44:46;;;;;;;10.70;4.90;;;;;;;3.71;92.29;97927.91;226574;1269;22570;-79
2024/01/01 10:49:56;;;;;;;8.60;4.90;;;;;;;3.71;92.20;97926.14;226282;1274;22634;-77
2024/01/01 10:55:12;;;;;;;11.00;5.90;;;;;;;3.72;92.32;97924.45;226387;1274;22554;-79
2024/01/01 11:01:14;;;;;;;8.40;5.80;;;;;;;3.75;92.41;97916.45;226343;1273;22766;-78
2024/01/01 11:06:26;;;;;;;10.90;6.20;;;;;;;3.81;92.28;97911.85;226280;1274;25368;-77
2024/01/01 11:11:32;;;;;;;11.20;6.10;;;;;;;3.86;92.42;97906.48;226508;1257;22544;-78
2024/01/01 11:16:49;;;;;;;10.90;6.40;;;;;;;3.93;92.36;97907.31;226495;1270;22705;-78
2024/01/01 11:22:31;;;;;;;13.50;6.50;;;;;;;4.00;92.18;97907.98;226425;1272;22548;-78
2024/01/01 11:27:45;;;;;;;12.20;6.60;;;;;;;4.09;92.30;97901.19;226277;1273;142080;-77
2024/01/01 11:32:47;;;;;;;11.30;6.80;;;;;;;4.15;92.14;97900.75;226539;1272;22548;-78
2024/01/01 11:37:49;;;;;;;11.00;7.90;;;;;;;4.18;92.38;97902.94;226537;1274;22600;-78
2024/01/01 11:42:53;;;;;;;13.50;8.20;;;;;;;4.22;92.55;97896.59;226511;1273;22595;-78
2024/01/01 11:48:05;;;;;;;13.70;8.20;;;;;;;4.22;92.10;97898.73;226438;1273;22562;-78
2024/01/01 11:53:07;;;;;;;16.60;10.30;;;;;;;4.23;92.10;97903.13;226504;1267;22591;-78
2024/01/01 11:58:11;;;;;;;15.80;10.40;;;;;;;4.25;92.29;97905.15;226500;1272;22564;-76
2024/01/01 12:03:13;;;;;;;20.90;12.20;;;;;;;4.28;92.30;97907.70;226474;1273;24250;-77
2024/01/01 12:08:17;;;;;;;24.10;15.00;;;;;;;4.31;92.23;97907.79;226491;1274;22547;-77
2024/01/01 12:13:19;;;;;;;23.10;15.00;;;;;;;4.34;92.29;97908.70;226385;1274;22559;-78
2024/01/01 12:18:22;;;;;;;26.30;16.90;;;;;;;4.36;92.44;97903.30;226364;1274;24235;-78
2024/01/01 12:23:25;;;;;;;27.40;16.30;;;;;;;4.37;92.31;97904.53;226514;1273;22885;-78
2024/01/01 12:28:27;;;;;;;22.10;13.70;;;;;;;4.38;92.29;97898.55;226556;1272;22576;-77
2024/01/01 12:33:29;;;;;;;28.20;15.40;;;;;;;4.35;92.42;97903.40;226461;1274;22690;-78
2024/01/01 12:38:31;;;;;;;25.90;16.30;;;;;;;4.35;92.61;97904.19;226544;1272;25353;-78
2024/01/01 12:43:34;;;;;;;24.40;16.20;;;;;;;4.36;92.50;97899.38;226594;1273;22568;-78
2024/01/01 12:48:37;;;;;;;23.30;16.60;;;;;;;4.38;92.73;97891.92;226500;1274;22554;-77
2024/01/01 12:53:39;;;;;;;22.10;15.00;;;;;;;4.46;92.85;97894.17;226548;1273;22546;-78
2024/01/01 12:58:41;;;;;;;23.70;14.20;;;;;;;4.57;92.54;97900.08;226560;1271;24227;-77
2024/01/01 13:03:46;;;;;;;19.30;13.10;;;;;;;4.60;92.58;97901.09;226475;1274;22545;-78
2024/01/01 13:08:51;;;;;;;18.20;12.50;;;;;;;4.65;92.72;97901.20;226583;1274;22664;-78
2024/01/01 13:13:54;;;;;;;21.20;13.80;;;;;;;4.70;92.67;97897.38;226510;1273;22560;-78
2024/01/01 13:18:56;;;;;;;20.30;12.60;;;;;;;4.72;92.44;97904.34;226538;1273;22560;-78
2024/01/01 13:24:00;;;;;;;20.00;13.80;;;;;;;4.72;92.59;97911.44;226588;1273;22667;-78
2024/01/01 13:29:02;;;;;;;18.60;13.70;;;;;;;4.74;92.41;97919.27;226654;1273;23026;-77
2024/01/01 13:34:07;;;;;;;21.80;14.00;;;;;;;4.76;92.44;97916.73;226594;1273;22588;-78
2024/01/01 13:39:09;;;;;;;20.10;14.10;;;;;;;4.78;92.25;97923.41;226554;1273;22552;-78
2024/01/01 13:44:11;;;;;;;24.20;16.50;;;;;;;4.81;92.70;97924.75;226536;1274;23008;-78
2024/01/01 13:49:16;;;;;;;21.50;15.00;;;;;;;4.84;92.81;97927.55;226498;1270;25362;-78
2024/01/01 13:54:18;;;;;;;22.30;15.80;;;;;;;4.88;92.55;97928.16;226562;1267;22534;-77
2024/01/01 13:59:20;;;;;;;25.40;16.00;;;;;;;4.92;92.63;97931.84;226628;1270;22593;-77
2024/01/01 14:04:23;;;;;;;23.40;15.40;;;;;;;4.95;92.59;97933.39;226595;1273;22559;-77
2024/01/01 14:09:25;;;;;;;20.60;13.60;;;;;;;4.94;92.34;97923.16;226530;1270;25393;-77
2024/01/01 14:14:27;;;;;;;22.80;14.10;;;;;;;4.94;92.73;97931.77;226594;1273;22549;-78
2024/01/01 14:19:29;;;;;;;19.10;13.50;;;;;;;4.95;92.84;97939.45;226511;1273;22601;-78
2024/01/01 14:24:31;;;;;;;19.20;13.70;;;;;;;4.92;92.79;97948.36;226591;1273;22544;-78
2024/01/01 14:29:34;;;;;;;21.30;13.40;;;;;;;4.89;92.87;97954.80;226507;1273;22577;-77
2024/01/01 14:34:36;;;;;;;19.80;14.10;;;;;;;4.87;92.50;97960.81;226509;1273;22575;-78
2024/01/01 14:39:42;;;;;;;23.30;15.70;;;;;;;4.86;93.02;97968.14;226345;1273;25303;-77
2024/01/01 14:44:45;;;;;;;25.40;17.80;;;;;;;4.86;92.82;97977.52;226654;1273;22549;-77
2024/01/01 14:49:51;;;;;;;23.10;15.60;;;;;;;4.87;92.88;97975.86;226506;1271;24458;-78
2024/01/01 14:54:55;;;;;;;25.80;16.90;;;;;;;4.88;92.94;97982.33;226699;1273;22604;-77
2024/01/01 14:59:57;;;;;;;20.40;14.30;;;;;;;4.90;93.10;97998.98;226432;1270;22826;-77
2024/01/01 15:05:00;;;;;;;24.60;15.90;;;;;;;4.93;93.34;97989.44;226528;1273;22573;-78
2024/01/01 15:10:05;;;;;;;25.20;16.40;;;;;;;4.98;93.45;97986.67;226498;1272;22644;-76
2024/01/01 15:15:09;;;;;;;31.00;21.30;;;;;;;4.98;93.09;97988.23;226604;1273;22532;-77
2024/01/01 15:20:12;;;;;;;34.50;22.90;;;;;;;4.96;93.19;97998.40;226545;1272;24389;-78
2024/01/01 15:25:14;;;;;;;36.40;24.50;;;;;;;4.93;93.04;97999.39;226431;1273;24348;-77
2024/01/01 15:30:16;;;;;;;34.00;21.70;;;;;;;4.91;93.18;97994.08;226497;1273;22566;-77
2024/01/01 15:35:18;;;;;;;31.10;20.50;;;;;;;4.88;92.85;97996.85;226470;1267;25294;-78
2024/01/01 15:40:20;;;;;;;33.00;20.50;;;;;;;4.86;93.19;97992.38;226592;1267;22547;-77
2024/01/01 15:45:22;;;;;;;35.60;21.10;;;;;;;4.85;92.99;97997.94;226507;1273;22514;-77
2024/01/01 15:50:25;;;;;;;28.30;18.60;;;;;;;4.82;92.70;98006.09;226481;1267;22550;-77
2024/01/01 15:55:30;;;;;;;29.00;18.10;;;;;;;4.79;92.85;98012.12;226599;1269;24266;-78
2024/01/01 16:00:35;;;;;;;26.70;15.90;;;;;;;4.77;92.92;98016.88;226534;1273;22589;-77
2024/01/01 16:05:38;;;;;;;27.30;15.50;;;;;;;4.75;92.91;98020.28;226553;1273;22992;-78
2024/01/01 16:10:41;;;;;;;25.50;16.20;;;;;;;4.72;92.77;98031.06;226440;1273;22586;-77
2024/01/01 16:15:54;;;;;;;22.90;13.70;;;;;;;4.69;92.67;98034.81;226582;1274;22537;-77
2024/01/01 16:20:58;;;;;;;15.80;10.70;;;;;;;4.64;92.57;98041.77;226541;1273;22564;-77
2024/01/01 16:26:00;;;;;;;16.50;10.10;;;;;;;4.58;92.64;98046.42;226484;1273;22594;-77
2024/01/01 16:31:03;;;;;;;16.80;11.50;;;;;;;4.52;92.68;98042.87;226483;1270;22686;-77
2024/01/01 16:36:14;;;;;;;16.90;10.70;;;;;;;4.44;92.33;98049.36;226519;1272;22573;-77
2024/01/01 16:41:22;;;;;;;18.70;11.20;;;;;;;4.33;92.72;98052.16;226558;1273;22557;-78
2024/01/01 16:46:24;;;;;;;18.00;11.30;;;;;;;4.23;92.70;98058.94;226423;1273;22987;-77
2024/01/01 16:51:28;;;;;;;23.40;13.40;;;;;;;4.14;92.50;98063.57;226580;1273;22574;-78
2024/01/01 16:56:31;;;;;;;22.50;12.20;;;;;;;4.08;92.91;98066.51;226646;1272;22545;-78
2024/01/01 17:01:33;;;;;;;21.60;13.00;;;;;;;4.05;92.65;98065.79;226580;1273;22588;-77
2024/01/01 17:06:39;;;;;;;19.10;12.00;;;;;;;4.03;92.75;98072.64;226470;1273;22550;-77
2024/01/01 17:11:45;;;;;;;20.40;12.40;;;;;;;4.07;92.50;98083.04;226603;1273;24653;-77
2024/01/01 17:16:48;;;;;;;22.40;11.40;;;;;;;4.12;92.68;98088.73;226807;1272;22536;-78
2024/01/01 17:21:53;;;;;;;20.50;11.70;;;;;;;4.16;92.33;98092.95;226616;1268;22815;-77
2024/01/01 17:26:57;;;;;;;21.10;11.50;;;;;;;4.19;92.35;98089.48;226549;1274;23013;-76
2024/01/01 17:32:02;;;;;;;17.90;10.80;;;;;;;4.22;91.91;98094.73;226610;1267;24222;-76
2024/01/01 17:37:05;;;;;;;17.80;10.50;;;;;;;4.25;92.14;98098.27;226433;1272;22545;-77
2024/01/01 17:42:12;;;;;;;21.30;11.80;;;;;;;4.29;91.88;98097.77;226644;1267;22566;-77
2024/01/01 17:47:21;;;;;;;18.70;10.90;;;;;;;4.29;92.08;98100.75;226616;1273;22580;-77
2024/01/01 17:52:25;;;;;;;23.20;12.50;;;;;;;4.28;91.74;98103.43;226413;1273;22569;-77
2024/01/01 17:57:28;;;;;;;25.30;12.90;;;;;;;4.29;91.71;98104.17;226501;1272;22574;-76
2024/01/01 18:02:31;;;;;;;23.40;12.50;;;;;;;4.29;91.53;98105.09;226622;1273;25392;-78
2024/01/01 18:07:40;;;;;;;24.20;12.60;;;;;;;4.28;91.35;98109.18;226495;1253;24243;-76
2024/01/01 18:12:45;;;;;;;19.40;12.30;;;;;;;4.25;91.61;98111.17;226553;1269;22739;-77
2024/01/01 18:17:49;;;;;;;22.20;11.40;;;;;;;4.24;91.40;98113.94;226614;1272;25527;-77
2024/01/01 18:22:55;;;;;;;28.00;13.50;;;;;;;4.22;91.28;98114.47;226577;1273;22537;-78
2024/01/01 18:27:59;;;;;;;23.30;13.80;;;;;;;4.19;91.24;98119.65;226502;1273;25313;-77
2024/01/01 18:33:02;;;;;;;27.50;15.70;;;;;;;4.17;91.48;98123.73;226555;1273;25249;-78
2024/01/01 18:38:05;;;;;;;25.30;13.80;;;;;;;4.15;91.32;98126.36;226636;1273;22540;-78
2024/01/01 18:43:08;;;;;;;25.30;13.90;;;;;;;4.14;91.41;98126.02;226552;1273;22547;-77
2024/01/01 18:48:11;;;;;;;20.90;10.70;;;;;;;4.13;91.35;98122.65;226633;1272;22583;-78
2024/01/01 18:53:13;;;;;;;18.20;9.90;;;;;;;4.13;91.14;98127.62;226533;1269;25262;-78
2024/01/01 18:58:15;;;;;;;18.50;10.20;;;;;;;4.15;91.07;98129.35;226602;1272;22897;-77
2024/01/01 19:03:19;;;;;;;17.50;9.50;;;;;;;4.17;91.18;98128.64;226612;1273;22539;-77
2024/01/01 19:08:21;;;;;;;16.50;9.60;;;;;;;4.18;90.93;98132.14;226574;1270;22553;-78
2024/01/01 19:13:23;;;;;;;16.10;8.60;;;;;;;4.20;90.73;98136.16;226424;1273;25508;-78
2024/01/01 19:18:29;;;;;;;13.20;7.50;;;;;;;4.20;90.77;98134.88;226603;1268;22566;-77
2024/01/01 19:23:34;;;;;;;15.80;8.80;;;;;;;4.21;90.47;98139.48;226582;1272;22610;-77
2024/01/01 19:28:38;;;;;;;15.60;8.00;;;;;;;4.23;90.28;98139.64;226458;1273;22563;-77
2024/01/01 19:33:41;;;;;;;15.00;7.90;;;;;;;4.24;90.60;98140.45;226580;1272;22709;-78
2024/01/01 19:38:44;;;;;;;15.60;7.20;;;;;;;4.25;90.47;98143.30;226684;1273;22553;-77
2024/01/01 19:43:47;;;;;;;14.10;7.20;;;;;;;4.26;90.39;98142.84;226583;1256;22558;-78
2024/01/01 19:48:49;;;;;;;11.90;7.60;;;;;;;4.26;90.35;98144.02;226461;1269;22560;-77
2024/01/01 19:53:51;;;;;;;14.40;7.30;;;;;;;4.28;89.95;98144.25;226563;1274;22712;-76
2024/01/01 19:58:55;;;;;;;14.60;7.40;;;;;;;4.28;89.97;98139.48;226571;1263;22557;-77
2024/01/01 20:03:59;;;;;;;14.10;7.30;;;;;;;4.29;90.23;98134.02;226974;1272;22570;-77
2024/01/01 20:09:05;;;;;;;14.90;7.60;;;;;;;4.30;89.75;98138.59;226537;1269;22543;-77
2024/01/01 20:14:10;;;;;;;17.80;8.20;;;;;;;4.31;89.62;98137.79;226536;1273;22547;-77
2024/01/01 20:19:14;;;;;;;18.80;9.20;;;;;;;4.31;89.51;98145.45;226552;1267;22564;-77
2024/01/01 20:24:18;;;;;;;16.00;8.60;;;;;;;4.29;89.59;98148.77;226446;1270;22566;-77
2024/01/01 20:29:22;;;;;;;16.50;8.60;;;;;;;4.27;89.39;98149.15;226595;1272;22552;-77
2024/01/01 20:34:27;;;;;;;16.60;9.10;;;;;;;4.26;89.26;98152.05;226555;1272;24947;-77
2024/01/01 20:39:30;;;;;;;15.90;8.60;;;;;;;4.25;89.43;98157.73;226648;1269;22576;-79
2024/01/01 20:44:35;;;;;;;17.30;7.80;;;;;;;4.24;89.59;98159.08;226633;1272;22601;-76
2024/01/01 20:49:37;;;;;;;14.50;7.40;;;;;;;4.22;89.29;98151.55;226527;1273;22544;-75
2024/01/01 20:54:39;;;;;;;15.20;8.50;;;;;;;4.22;89.50;98157.58;226530;1267;22554;-77
2024/01/01 20:59:41;;;;;;;16.40;9.20;;;;;;;4.20;89.18;98157.36;226573;1273;22706;-77
2024/01/01 21:04:43;;;;;;;17.70;8.90;;;;;;;4.18;89.30;98160.95;226605;1272;22536;-76
2024/01/01 21:09:45;;;;;;;20.30;10.10;;;;;;;4.12;89.43;98166.10;226563;1270;22579;-76
2024/01/01 21:14:47;;;;;;;22.70;11.70;;;;;;;4.08;89.39;98175.47;226631;1273;23471;-76
2024/01/01 21:19:50;;;;;;;23.20;11.60;;;;;;;4.03;89.25;98177.02;226528;1274;22561;-77
2024/01/01 21:24:54;;;;;;;26.50;12.00;;;;;;;3.95;89.11;98179.84;226566;1270;25500;-75
2024/01/01 21:29:56;;;;;;;25.80;11.80;;;;;;;3.83;89.16;98179.31;226553;1272;25316;-75
2024/01/01 21:34:58;;;;;;;22.80;11.60;;;;;;;3.71;88.96;98184.05;226472;1269;22544;-75
2024/01/01 21:40:00;;;;;;;25.20;12.00;;;;;;;3.58;88.97;98181.17;226513;1272;22593;-76
2024/01/01 21:45:03;;;;;;;23.50;10.50;;;;;;;3.47;88.85;98184.11;226473;1272;24236;-75
2024/01/01 21:50:06;;;;;;;26.60;12.00;;;;;;;3.40;88.78;98180.85;226523;1266;22586;-78
2024/01/01 21:55:09;;;;;;;25.80;11.00;;;;;;;3.36;88.87;98185.96;226553;1256;23545;-77
2024/01/01 22:00:13;;;;;;;21.80;10.10;;;;;;;3.32;89.04;98181.40;226495;1269;22640;-76
2024/01/01 22:05:17;;;;;;;22.40;9.60;;;;;;;3.29;89.07;98179.20;226518;1269;22879;-77
2024/01/01 22:10:19;;;;;;;19.20;9.20;;;;;;;3.28;88.88;98178.95;226570;1272;24215;-77
2024/01/01 22:15:21;;;;;;;15.80;8.20;;;;;;;3.28;88.91;98180.95;226514;1266;22576;-76
2024/01/01 22:20:23;;;;;;;17.90;8.60;;;;;;;3.32;89.25;98177.64;226512;1272;22535;-76
2024/01/01 22:25:26;;;;;;;16.80;7.80;;;;;;;3.36;89.11;98176.66;226583;1273;22562;-76
2024/01/01 22:30:29;;;;;;;18.20;7.90;;;;;;;3.40;89.19;98178.54;226493;1272;22540;-76
2024/01/01 22:35:31;;;;;;;18.20;7.90;;;;;;;3.43;88.84;98172.06;226435;1272;24431;-76
2024/01/01 22:40:33;;;;;;;15.90;7.70;;;;;;;3.46;88.88;98165.07;226452;1273;22782;-76
2024/01/01 22:45:35;;;;;;;16.70;7.60;;;;;;;3.48;88.57;98166.58;226472;1250;22559;-76
2024/01/01 22:50:37;;;;;;;16.20;8.20;;;;;;;3.50;88.71;98161.14;226518;1269;22615;-76
2024/01/01 22:55:39;;;;;;;15.60;7.30;;;;;;;3.53;88.61;98162.07;226380;1273;22545;-76
2024/01/01 23:00:42;;;;;;;17.00;7.50;;;;;;;3.57;88.67;98164.78;226481;1270;22680;-76
2024/01/01 23:05:44;;;;;;;15.90;7.20;;;;;;;3.62;88.49;98167.77;226459;1266;24225;-76
2024/01/01 23:10:46;;;;;;;13.90;6.00;;;;;;;3.67;88.42;98169.09;226448;1271;22543;-76
2024/01/01 23:15:48;;;;;;;11.40;5.70;;;;;;;3.73;88.33;98162.06;226464;1272;22583;-76
2024/01/01 23:20:51;;;;;;;12.30;5.80;;;;;;;3.77;88.00;98164.02;226528;1270;22657;-76